createdAt,value
2023-01-11T00:00:29.049Z,3.63
2023-01-11T00:02:57.210Z,3.85
2023-01-11T00:05:23.788Z,3.33
2023-01-11T00:07:50.596Z,3.58
2023-01-11T00:10:17.795Z,3.20
2023-01-11T00:12:44.617Z,3.30
2023-01-11T00:15:11.957Z,3.88
2023-01-11T00:17:38.457Z,3.15
2023-01-11T00:20:05.431Z,3.80
2023-01-11T00:22:31.864Z,3.30
2023-01-11T00:24:58.258Z,3.63
2023-01-11T00:27:24.716Z,4.03
2023-01-11T00:29:51.111Z,3.15
2023-01-11T00:32:17.660Z,3.17
2023-01-11T00:34:44.055Z,2.70
2023-01-11T00:37:10.740Z,3.15
2023-01-11T00:39:37.169Z,3.28
2023-01-11T00:42:22.415Z,3.30
2023-01-11T00:45:07.224Z,3.08
2023-01-11T00:47:52.050Z,2.93
2023-01-11T00:50:19.117Z,2.90
2023-01-11T00:52:45.573Z,2.88
2023-01-11T00:55:12.005Z,3.08
2023-01-11T00:57:39.534Z,3.13
2023-01-11T01:00:06.818Z,2.83
2023-01-11T01:02:33.873Z,3.08
2023-01-11T01:05:00.454Z,2.60
2023-01-11T01:07:27.333Z,2.28
2023-01-11T01:09:53.839Z,2.47
2023-01-11T01:12:38.776Z,2.33
2023-01-11T01:15:06.051Z,2.28
2023-01-11T01:17:32.496Z,2.17
2023-01-11T01:19:58.970Z,2.10
2023-01-11T01:22:25.410Z,2.40
2023-01-11T01:24:51.866Z,2.27
2023-01-11T01:27:20.019Z,1.88
2023-01-11T01:29:46.455Z,1.80
2023-01-11T01:32:15.291Z,1.80
2023-01-11T01:34:41.751Z,1.90
2023-01-11T01:37:11.231Z,1.60
2023-01-11T01:39:38.291Z,1.50
2023-01-11T01:42:06.059Z,1.38
2023-01-11T01:44:59.001Z,1.23
2023-01-11T01:47:37.444Z,1.20
2023-01-11T01:50:16.360Z,1.07
2023-01-11T01:52:46.086Z,1.33
2023-01-11T01:55:19.601Z,0.90
2023-01-11T01:57:46.146Z,1.10
2023-01-11T02:00:13.040Z,0.77
2023-01-11T02:02:43.809Z,1.07
2023-01-11T02:05:11.821Z,1.02
2023-01-11T02:07:41.381Z,0.95
2023-01-11T02:10:16.190Z,0.90
2023-01-11T02:13:05.046Z,0.90
2023-01-11T02:15:32.391Z,0.90
2023-01-11T02:17:58.774Z,1.00
2023-01-11T02:21:02.173Z,0.95
2023-01-11T02:24:19.457Z,0.82
2023-01-11T02:27:22.987Z,0.65
2023-01-11T02:30:14.810Z,0.70
2023-01-11T02:32:55.142Z,0.70
2023-01-11T02:35:58.780Z,0.40
2023-01-11T02:38:43.502Z,0.50
2023-01-11T02:41:52.398Z,0.60
2023-01-11T02:44:45.372Z,0.70
2023-01-11T02:47:18.682Z,0.73
2023-01-11T02:49:54.106Z,1.20
2023-01-11T02:52:29.423Z,1.25
2023-01-11T02:54:59.016Z,1.50
2023-01-11T02:57:27.576Z,1.70
2023-01-11T02:59:57.912Z,1.90
2023-01-11T03:02:25.343Z,1.60
2023-01-11T03:04:51.852Z,1.50
2023-01-11T03:07:36.547Z,1.48
2023-01-11T03:10:11.969Z,1.60
2023-01-11T03:13:10.677Z,1.67
2023-01-11T03:16:04.497Z,1.58
2023-01-11T03:18:46.148Z,1.75
2023-01-11T03:21:42.826Z,1.58
2023-01-11T03:24:23.933Z,1.43
2023-01-11T03:26:53.051Z,1.67
2023-01-11T03:29:40.255Z,1.58
2023-01-11T03:32:15.681Z,1.40
2023-01-11T03:34:57.540Z,1.30
2023-01-11T03:37:42.417Z,0.90
2023-01-11T03:40:33.475Z,1.00
2023-01-11T03:43:10.971Z,0.98
2023-01-11T03:45:48.116Z,0.80
2023-01-11T03:48:19.991Z,0.70
2023-01-11T03:50:49.620Z,0.50
2023-01-11T03:53:19.510Z,0.60
2023-01-11T03:55:49.606Z,0.30
2023-01-11T03:58:16.190Z,0.20
2023-01-11T04:00:43.166Z,0.10
2023-01-11T04:03:12.609Z,0.10
2023-01-11T04:05:43.722Z,0.10
2023-01-11T04:08:11.291Z,0.20
2023-01-11T04:10:38.279Z,0.30
2023-01-11T04:13:04.644Z,0.40
2023-01-11T04:15:32.685Z,0.60
2023-01-11T04:18:04.814Z,0.40
2023-01-11T04:20:37.019Z,0.82
2023-01-11T04:23:04.917Z,0.90
2023-01-11T04:25:31.408Z,1.05
2023-01-11T04:27:58.050Z,0.93
2023-01-11T04:30:25.054Z,1.40
2023-01-11T04:32:51.571Z,1.70
2023-01-11T04:35:18.761Z,2.08
2023-01-11T04:37:45.236Z,2.15
2023-01-11T04:40:12.008Z,2.20
2023-01-11T04:42:38.436Z,2.35
2023-01-11T04:45:06.059Z,2.58
2023-01-11T04:47:32.838Z,2.47
2023-01-11T04:49:59.681Z,2.25
2023-01-11T04:52:26.172Z,2.30
2023-01-11T04:54:53.947Z,1.85
2023-01-11T04:57:20.751Z,2.38
2023-01-11T04:59:47.223Z,2.30
2023-01-11T05:02:14.521Z,2.30
2023-01-11T05:04:41.438Z,1.70
2023-01-11T05:07:08.878Z,2.90
2023-01-11T05:09:35.580Z,1.90
2023-01-11T05:12:02.270Z,2.40
2023-01-11T05:14:28.834Z,2.00
2023-01-11T05:16:55.321Z,1.70
2023-01-11T05:19:21.740Z,1.60
2023-01-11T05:21:48.821Z,1.60
2023-01-11T05:24:16.516Z,1.38
2023-01-11T05:26:45.121Z,1.25
2023-01-11T05:29:16.305Z,1.30
2023-01-11T05:31:42.902Z,1.10
2023-01-11T05:34:12.475Z,1.20
2023-01-11T05:36:38.889Z,1.98
2023-01-11T05:39:05.938Z,1.20
2023-01-11T05:41:33.019Z,1.60
2023-01-11T05:44:17.954Z,1.30
2023-01-11T05:46:44.656Z,1.40
2023-01-11T05:49:13.173Z,1.98
2023-01-11T05:51:40.766Z,0.90
2023-01-11T05:54:10.231Z,1.10
2023-01-11T05:56:36.790Z,1.50
2023-01-11T05:59:04.046Z,1.42
2023-01-11T06:01:31.222Z,1.50
2023-01-11T06:03:57.703Z,1.25
2023-01-11T06:06:24.183Z,1.27
2023-01-11T06:08:50.592Z,1.30
2023-01-11T06:11:17.497Z,1.15
2023-01-11T06:13:44.004Z,1.60
2023-01-11T06:16:18.914Z,1.67
2023-01-11T06:18:48.011Z,1.40
2023-01-11T06:21:15.865Z,0.95
2023-01-11T06:23:45.254Z,1.30
2023-01-11T06:26:14.439Z,1.52
2023-01-11T06:28:41.453Z,1.10
2023-01-11T06:31:08.042Z,1.30
2023-01-11T06:33:35.052Z,1.20
2023-01-11T06:36:10.026Z,1.38
2023-01-11T06:38:36.748Z,1.50
2023-01-11T06:41:05.029Z,1.20
2023-01-11T06:43:32.302Z,1.40
2023-01-11T06:45:59.340Z,2.08
2023-01-11T06:48:26.822Z,1.05
2023-01-11T06:50:55.592Z,1.55
2023-01-11T06:53:22.939Z,1.48
2023-01-11T06:55:53.524Z,0.83
2023-01-11T06:58:22.373Z,1.77
2023-01-11T07:00:49.201Z,1.30
2023-01-11T07:03:15.704Z,0.95
2023-01-11T07:05:43.881Z,1.25
2023-01-11T07:08:10.431Z,1.07
2023-01-11T07:10:37.185Z,0.95
2023-01-11T07:13:04.184Z,1.25
2023-01-11T07:15:30.779Z,0.70
2023-01-11T07:17:58.828Z,1.50
2023-01-11T07:20:25.959Z,1.33
2023-01-11T07:22:52.491Z,1.30
2023-01-11T07:25:18.954Z,1.27
2023-01-11T07:27:45.494Z,1.25
2023-01-11T07:30:12.461Z,1.05
2023-01-11T07:32:39.211Z,1.20
2023-01-11T07:35:06.714Z,0.88
2023-01-11T07:37:34.149Z,0.85
2023-01-11T07:40:00.864Z,0.70
2023-01-11T07:42:45.710Z,1.27
2023-01-11T07:45:12.412Z,0.93
2023-01-11T07:47:39.008Z,0.70
2023-01-11T07:50:05.965Z,0.88
2023-01-11T07:52:32.509Z,0.90
2023-01-11T07:55:02.440Z,1.20
2023-01-11T07:57:33.022Z,0.90
2023-01-11T07:59:59.486Z,1.33
2023-01-11T08:02:25.993Z,1.27
2023-01-11T08:04:52.605Z,1.52
2023-01-11T08:07:19.713Z,1.40
2023-01-11T08:09:46.258Z,1.43
2023-01-11T08:12:31.199Z,0.90
2023-01-11T08:14:57.674Z,1.23
2023-01-11T08:17:24.122Z,1.10
2023-01-11T08:19:50.632Z,1.20
2023-01-11T08:22:19.943Z,1.43
2023-01-11T08:24:46.523Z,1.05
2023-01-11T08:27:13.055Z,1.73
2023-01-11T08:29:44.355Z,1.13
2023-01-11T08:32:12.186Z,1.55
2023-01-11T08:34:39.084Z,1.93
2023-01-11T08:37:05.670Z,0.95
2023-01-11T08:39:32.537Z,1.10
2023-01-11T08:41:59.879Z,1.05
2023-01-11T08:44:34.200Z,1.00
2023-01-11T08:47:01.932Z,1.17
2023-01-11T08:49:30.396Z,1.40
2023-01-11T08:51:56.924Z,0.77
2023-01-11T08:54:23.455Z,1.00
2023-01-11T08:56:49.923Z,1.50
2023-01-11T08:59:16.424Z,1.23
2023-01-11T09:01:42.901Z,1.35
2023-01-11T09:04:23.095Z,1.98
2023-01-11T09:06:51.067Z,0.93
2023-01-11T09:09:17.690Z,0.73
2023-01-11T09:12:04.789Z,1.97
2023-01-11T09:14:31.958Z,1.80
2023-01-11T09:16:58.479Z,1.55
2023-01-11T09:19:25.382Z,1.25
2023-01-11T09:21:52.098Z,1.48
2023-01-11T09:24:19.282Z,1.27
2023-01-11T09:26:45.748Z,1.15
2023-01-11T09:29:12.738Z,1.23
2023-01-11T09:31:39.778Z,1.77
2023-01-11T09:34:07.125Z,1.02
2023-01-11T09:36:35.995Z,1.67
2023-01-11T09:39:07.407Z,1.17
2023-01-11T09:42:06.093Z,1.08
2023-01-11T09:44:36.673Z,0.70
2023-01-11T09:47:18.912Z,0.82
2023-01-11T09:49:58.534Z,1.03
2023-01-11T09:52:29.904Z,1.75
2023-01-11T09:55:01.092Z,1.00
2023-01-11T09:57:51.876Z,1.58
2023-01-11T10:00:37.599Z,1.23
2023-01-11T10:03:27.162Z,1.37
2023-01-11T10:06:06.750Z,0.88
2023-01-11T10:18:32.089Z,1.38
2023-01-11T10:18:38.661Z,1.20
2023-01-11T10:21:25.122Z,1.45
2023-01-11T10:23:58.136Z,1.50
2023-01-11T10:26:28.683Z,1.58
2023-01-11T10:29:22.009Z,1.40
2023-01-11T10:32:53.172Z,1.23
2023-01-11T10:35:44.857Z,1.48
2023-01-11T10:38:28.233Z,2.03
2023-01-11T10:41:06.821Z,0.95
2023-01-11T10:43:43.960Z,1.23
2023-01-11T10:46:21.391Z,1.63
2023-01-11T10:48:50.844Z,1.80
2023-01-11T10:51:37.600Z,1.60
2023-01-11T10:54:26.997Z,1.33
2023-01-11T10:57:02.627Z,0.80
2023-01-11T10:59:56.247Z,1.50
2023-01-11T11:02:28.746Z,1.08
2023-01-11T11:05:08.329Z,1.17
2023-01-11T11:08:05.714Z,1.45
2023-01-11T11:10:46.678Z,1.50
2023-01-11T11:13:23.477Z,1.27
2023-01-11T11:16:22.371Z,1.20
2023-01-11T11:18:54.143Z,0.70
2023-01-11T11:21:36.718Z,1.33
2023-01-11T11:24:15.115Z,1.30
2023-01-11T11:26:46.791Z,0.97
2023-01-11T11:29:22.589Z,1.40
2023-01-11T11:31:50.858Z,1.42
2023-01-11T11:34:20.811Z,1.35
2023-01-11T11:36:50.148Z,1.15
2023-01-11T11:39:25.147Z,0.60
2023-01-11T11:41:57.240Z,0.85
2023-01-11T11:44:28.357Z,1.27
2023-01-11T11:47:14.871Z,1.08
2023-01-11T11:49:42.439Z,1.25
2023-01-11T11:52:17.846Z,1.10
2023-01-11T11:54:56.786Z,2.30
2023-01-11T11:57:28.461Z,1.08
2023-01-11T12:00:08.231Z,1.00
2023-01-11T12:02:41.895Z,0.85
2023-01-11T12:05:10.340Z,0.93
2023-01-11T12:07:54.383Z,1.50
2023-01-11T12:10:27.712Z,1.48
2023-01-11T12:12:57.043Z,1.20
2023-01-11T12:15:28.800Z,1.25
2023-01-11T12:18:15.393Z,1.43
2023-01-11T12:20:42.479Z,1.13
2023-01-11T12:23:27.070Z,1.35
2023-01-11T12:26:11.425Z,1.13
2023-01-11T12:28:56.022Z,0.98
2023-01-11T12:31:52.764Z,1.10
2023-01-11T12:34:25.086Z,1.83
2023-01-11T12:37:03.551Z,0.90
2023-01-11T12:40:11.432Z,0.98
2023-01-11T12:42:46.873Z,1.08
2023-01-11T12:45:23.389Z,0.83
2023-01-11T12:48:31.839Z,1.25
2023-01-11T12:51:10.380Z,1.42
2023-01-11T12:54:05.905Z,1.38
2023-01-11T12:56:32.331Z,1.40
2023-01-11T12:59:07.221Z,0.90
2023-01-11T13:01:36.715Z,1.33
2023-01-11T13:04:24.388Z,1.00
2023-01-11T13:07:18.981Z,0.95
2023-01-11T13:09:53.932Z,1.50
2023-01-11T13:12:42.493Z,0.97
2023-01-11T13:15:29.220Z,1.70
2023-01-11T13:18:04.478Z,1.00
2023-01-11T13:21:00.764Z,1.45
2023-01-11T13:23:50.269Z,1.00
2023-01-11T13:26:23.352Z,1.40
2023-01-11T13:28:57.829Z,1.35
2023-01-11T13:31:25.972Z,1.10
2023-01-11T13:33:59.357Z,0.85
2023-01-11T13:36:33.518Z,0.57
2023-01-11T13:39:09.240Z,0.70
2023-01-11T13:41:40.965Z,0.55
2023-01-11T13:44:22.525Z,1.55
2023-01-11T13:46:59.971Z,1.40
2023-01-11T13:49:53.724Z,1.30
2023-01-11T13:52:45.465Z,0.93
2023-01-11T13:55:26.093Z,1.08
2023-01-11T13:58:23.348Z,0.80
2023-01-11T14:00:57.888Z,1.45
2023-01-11T14:03:52.443Z,1.20
2023-01-11T14:06:37.263Z,1.13
2023-01-11T14:09:29.267Z,1.27
2023-01-11T14:12:01.103Z,0.73
2023-01-11T14:14:39.778Z,1.45
2023-01-11T14:17:18.853Z,1.15
2023-01-11T14:19:52.363Z,1.10
2023-01-11T14:22:29.147Z,1.50
2023-01-11T14:25:06.343Z,1.67
2023-01-11T14:27:35.820Z,1.33
2023-01-11T14:30:27.255Z,2.10
2023-01-11T14:33:28.604Z,1.57
2023-01-11T14:36:38.894Z,1.75
2023-01-11T14:39:33.333Z,1.33
2023-01-11T14:42:47.801Z,1.38
2023-01-11T14:45:45.915Z,0.88
2023-01-11T14:48:29.098Z,1.13
2023-01-11T14:51:01.593Z,1.55
2023-01-11T14:53:36.258Z,1.13
2023-01-11T14:56:02.716Z,1.35
2023-01-11T14:58:31.664Z,0.85
2023-01-11T15:00:58.015Z,1.60
2023-01-11T15:03:34.704Z,0.93
2023-01-11T15:06:10.538Z,1.55
2023-01-11T15:08:46.966Z,0.98
2023-01-11T15:11:30.000Z,0.80
2023-01-11T15:13:59.006Z,1.00
2023-01-11T15:16:47.088Z,1.38
2023-01-11T15:19:26.640Z,1.92
2023-01-11T15:21:55.816Z,1.70
2023-01-11T15:24:26.882Z,0.85
2023-01-11T15:26:54.202Z,1.33
2023-01-11T15:29:25.600Z,1.50
2023-01-11T15:31:55.228Z,1.23
2023-01-11T15:34:30.933Z,1.73
2023-01-11T15:37:00.371Z,1.33
2023-01-11T15:40:16.558Z,1.70
2023-01-11T15:43:15.595Z,1.25
2023-01-11T15:46:09.836Z,1.00
2023-01-11T15:48:58.502Z,0.98
2023-01-11T15:51:44.731Z,1.67
2023-01-11T15:54:23.037Z,1.20
2023-01-11T15:56:58.637Z,1.48
2023-01-11T15:59:40.240Z,1.63
2023-01-11T16:02:15.775Z,1.05
2023-01-11T16:04:53.952Z,1.02
2023-01-11T16:07:43.397Z,1.37
2023-01-11T16:10:27.787Z,1.40
2023-01-11T16:13:00.377Z,1.35
2023-01-11T16:16:00.873Z,0.98
2023-01-11T16:18:39.290Z,0.90
2023-01-11T16:21:10.232Z,1.17
2023-01-11T16:23:37.114Z,1.00
2023-01-11T16:26:04.962Z,1.00
2023-01-11T16:28:31.443Z,0.98
2023-01-11T16:31:03.848Z,1.33
2023-01-11T16:33:33.103Z,0.90
2023-01-11T16:36:14.738Z,1.05
2023-01-11T16:39:03.853Z,0.80
2023-01-11T16:41:53.469Z,1.00
2023-01-11T16:44:51.577Z,1.20
2023-01-11T16:47:19.980Z,0.73
2023-01-11T16:49:49.249Z,0.60
2023-01-11T16:52:27.937Z,0.98
2023-01-11T16:54:56.870Z,0.57
2023-01-11T16:57:29.418Z,0.90
2023-01-11T17:00:18.814Z,0.60
2023-01-11T17:02:48.884Z,0.60
2023-01-11T17:05:21.298Z,1.27
2023-01-11T17:07:47.825Z,0.60
2023-01-11T17:10:35.047Z,1.00
2023-01-11T17:13:31.914Z,0.70
2023-01-11T17:16:27.667Z,1.02
2023-01-11T17:18:54.704Z,1.20
2023-01-11T17:21:24.663Z,1.58
2023-01-11T17:23:53.960Z,0.70
2023-01-11T17:26:27.420Z,0.70
2023-01-11T17:28:59.579Z,1.05
2023-01-11T17:31:32.829Z,0.93
2023-01-11T17:34:05.362Z,0.88
2023-01-11T17:36:32.617Z,1.33
2023-01-11T17:38:59.593Z,1.00
2023-01-11T17:41:46.410Z,1.17
2023-01-11T17:44:50.262Z,1.48
2023-01-11T17:47:16.834Z,1.13
2023-01-11T17:49:43.396Z,1.40
2023-01-11T17:52:43.927Z,1.00
2023-01-11T17:55:16.613Z,1.25
2023-01-11T17:57:43.691Z,0.82
2023-01-11T18:00:24.145Z,1.10
2023-01-11T18:02:51.032Z,1.02
2023-01-11T18:05:21.169Z,1.33
2023-01-11T18:07:57.436Z,0.88
2023-01-11T18:10:27.062Z,2.28
2023-01-11T18:12:56.128Z,0.65
2023-01-11T18:15:32.428Z,1.45
2023-01-11T18:17:59.681Z,1.47
2023-01-11T18:20:33.855Z,0.68
2023-01-11T18:23:07.770Z,1.08
2023-01-11T18:25:35.165Z,0.80
2023-01-11T18:28:26.870Z,1.40
2023-01-11T18:30:57.651Z,2.27
2023-01-11T18:33:27.293Z,0.95
2023-01-11T18:35:57.973Z,0.93
2023-01-11T18:38:28.750Z,1.45
2023-01-11T18:40:57.440Z,1.38
2023-01-11T18:43:31.016Z,1.50
2023-01-11T18:45:57.539Z,1.45
2023-01-11T18:48:24.119Z,1.05
2023-01-11T18:50:52.105Z,1.05
2023-01-11T18:53:18.928Z,1.35
2023-01-11T18:55:46.309Z,1.43
2023-01-11T18:58:12.788Z,1.27
2023-01-11T19:00:41.488Z,1.10
2023-01-11T19:03:10.824Z,1.45
2023-01-11T19:05:37.346Z,1.73
2023-01-11T19:08:03.923Z,1.30
2023-01-11T19:10:30.365Z,1.00
2023-01-11T19:12:57.816Z,0.90
2023-01-11T19:15:24.380Z,1.00
2023-01-11T19:17:50.832Z,1.60
2023-01-11T19:20:17.806Z,2.07
2023-01-11T19:22:44.337Z,1.15
2023-01-11T19:25:11.234Z,1.00
2023-01-11T19:27:38.016Z,0.70
2023-01-11T19:30:08.364Z,0.95
2023-01-11T19:32:34.989Z,1.00
2023-01-11T19:35:01.598Z,1.10
2023-01-11T19:37:30.168Z,1.58
2023-01-11T19:39:56.552Z,2.67
2023-01-11T19:42:23.826Z,0.95
2023-01-11T19:44:51.398Z,1.30
2023-01-11T19:47:18.455Z,1.35
2023-01-11T19:49:45.111Z,1.00
2023-01-11T19:52:14.534Z,1.73
2023-01-11T19:54:42.664Z,1.70
2023-01-11T19:57:14.274Z,1.30
2023-01-11T19:59:41.393Z,0.88
2023-01-11T20:02:07.958Z,0.95
2023-01-11T20:04:34.523Z,0.80
2023-01-11T20:07:00.920Z,0.75
2023-01-11T20:09:27.383Z,0.97
2023-01-11T20:11:55.341Z,0.82
2023-01-11T20:14:21.977Z,0.98
2023-01-11T20:16:48.441Z,1.00
2023-01-11T20:19:14.978Z,1.33
2023-01-11T20:21:41.602Z,1.20
2023-01-11T20:24:10.088Z,1.42
2023-01-11T20:26:36.588Z,0.95
2023-01-11T20:29:03.575Z,1.38
2023-01-11T20:31:34.982Z,1.13
2023-01-11T20:34:06.950Z,1.67
2023-01-11T20:36:33.481Z,0.60
2023-01-11T20:38:59.892Z,1.10
2023-01-11T20:41:45.925Z,1.48
2023-01-11T20:44:15.921Z,0.90
2023-01-11T20:46:44.288Z,1.33
2023-01-11T20:49:11.743Z,0.77
2023-01-11T20:51:38.502Z,1.85
2023-01-11T20:54:05.978Z,1.33
2023-01-11T20:56:33.613Z,2.53
2023-01-11T20:59:05.151Z,0.83
2023-01-11T21:01:32.350Z,1.40
2023-01-11T21:04:04.661Z,1.45
2023-01-11T21:06:33.337Z,0.85
2023-01-11T21:09:01.739Z,0.65
2023-01-11T21:11:29.281Z,0.93
2023-01-11T21:16:24.451Z,1.40
2023-01-11T21:18:56.047Z,0.90
2023-01-11T21:21:23.061Z,0.80
2023-01-11T21:23:53.448Z,1.23
2023-01-11T21:26:19.981Z,0.95
2023-01-11T21:28:51.872Z,0.80
2023-01-11T21:31:21.108Z,1.10
2023-01-11T21:33:49.186Z,1.10
2023-01-11T21:36:18.689Z,0.90
2023-01-11T21:38:45.300Z,0.82
2023-01-11T21:41:42.506Z,2.03
2023-01-11T21:44:10.439Z,0.98
2023-01-11T21:46:37.441Z,0.57
2023-01-11T21:49:04.359Z,1.00
2023-01-11T21:51:30.893Z,0.95
2023-01-11T21:53:58.404Z,1.15
2023-01-11T21:56:25.960Z,0.80
2023-01-11T21:58:52.641Z,0.93
2023-01-11T22:01:22.629Z,0.90
2023-01-11T22:03:49.471Z,1.00
2023-01-11T22:06:16.944Z,1.10
2023-01-11T22:08:45.031Z,0.85
2023-01-11T22:11:13.169Z,1.17
2023-01-11T22:13:39.782Z,1.33
2023-01-11T22:16:08.677Z,1.33
2023-01-11T22:18:35.774Z,0.75
2023-01-11T22:21:19.217Z,0.77
2023-01-11T22:23:47.512Z,1.05
2023-01-11T22:26:18.722Z,0.90
2023-01-11T22:29:04.665Z,1.08
2023-01-11T22:31:32.839Z,1.13
2023-01-11T22:34:00.283Z,1.08
2023-01-11T22:36:28.517Z,1.10
2023-01-11T22:38:55.266Z,0.90
2023-01-11T22:41:24.108Z,1.65
2023-01-11T22:43:50.698Z,1.50
2023-01-11T22:46:19.361Z,0.75
2023-01-11T22:48:49.280Z,2.20
2023-01-11T22:51:17.731Z,1.03
2023-01-11T22:53:46.288Z,0.80
2023-01-11T22:56:13.910Z,1.10
2023-01-11T22:58:40.589Z,1.30
2023-01-11T23:01:30.613Z,0.77
2023-01-11T23:03:57.668Z,1.00
2023-01-11T23:06:27.639Z,1.20
2023-01-11T23:08:54.784Z,0.98
2023-01-11T23:11:54.115Z,0.60
2023-01-11T23:14:20.832Z,0.98
2023-01-11T23:16:49.178Z,0.90
2023-01-11T23:19:17.645Z,0.95
2023-01-11T23:21:45.461Z,0.90
2023-01-11T23:24:13.207Z,0.88
2023-01-11T23:26:39.891Z,0.95
2023-01-11T23:29:06.682Z,1.33
2023-01-11T23:31:33.413Z,0.90
2023-01-11T23:34:01.397Z,1.20
2023-01-11T23:36:33.642Z,1.33
2023-01-11T23:39:00.221Z,0.95
2023-01-11T23:41:45.301Z,1.20
2023-01-11T23:44:13.859Z,1.48
2023-01-11T23:46:59.707Z,1.00
2023-01-11T23:49:26.917Z,1.42
2023-01-11T23:51:54.649Z,1.20
2023-01-11T23:54:21.715Z,0.80
2023-01-11T23:56:48.970Z,1.42
2023-01-11T23:59:15.356Z,1.13
